createdAt,value
2022-09-21T00:01:15.842Z,4.40
2022-09-21T00:03:44.861Z,4.20
2022-09-21T00:06:14.780Z,4.50
2022-09-21T00:08:43.534Z,4.22
2022-09-21T00:11:15.084Z,5.28
2022-09-21T00:13:46.805Z,4.82
2022-09-21T00:16:17.832Z,4.63
2022-09-21T00:18:46.164Z,4.45
2022-09-21T00:21:16.608Z,4.40
2022-09-21T00:23:45.708Z,4.40
2022-09-21T00:26:16.558Z,4.40
2022-09-21T00:28:46.258Z,5.00
2022-09-21T00:31:18.264Z,5.20
2022-09-21T00:33:46.604Z,4.82
2022-09-21T00:36:17.256Z,4.78
2022-09-21T00:38:46.103Z,4.35
2022-09-21T00:41:14.772Z,5.22
2022-09-21T00:43:47.190Z,5.57
2022-09-21T00:46:24.174Z,4.43
2022-09-21T00:48:52.628Z,4.80
2022-09-21T00:51:21.328Z,4.40
2022-09-21T00:53:53.008Z,3.90
2022-09-21T00:56:21.483Z,4.25
2022-09-21T00:58:52.236Z,3.70
2022-09-21T01:01:22.378Z,3.40
2022-09-21T01:03:52.723Z,3.70
2022-09-21T01:06:22.484Z,3.83
2022-09-21T01:08:54.276Z,3.30
2022-09-21T01:11:31.581Z,3.45
2022-09-21T01:14:33.062Z,4.20
2022-09-21T01:17:13.505Z,4.00
2022-09-21T01:20:19.908Z,3.97
2022-09-21T01:23:02.813Z,3.50
2022-09-21T01:25:40.565Z,3.28
2022-09-21T01:28:20.365Z,2.92
2022-09-21T01:30:53.546Z,3.13
2022-09-21T01:33:28.846Z,2.83
2022-09-21T01:36:02.251Z,4.00
2022-09-21T01:38:36.714Z,3.58
2022-09-21T01:41:08.095Z,3.25
2022-09-21T01:43:40.165Z,4.35
2022-09-21T01:46:15.263Z,3.65
2022-09-21T01:48:47.672Z,3.70
2022-09-21T01:51:19.049Z,3.70
2022-09-21T01:53:52.199Z,3.25
2022-09-21T01:56:26.775Z,3.60
2022-09-21T01:59:05.133Z,3.08
2022-09-21T02:01:39.905Z,3.80
2022-09-21T02:04:12.449Z,3.45
2022-09-21T02:06:44.515Z,3.60
2022-09-21T02:09:13.375Z,3.30
2022-09-21T02:11:43.075Z,3.72
2022-09-21T02:14:12.892Z,3.70
2022-09-21T02:16:49.902Z,4.00
2022-09-21T02:19:23.760Z,3.92
2022-09-21T02:22:03.301Z,4.60
2022-09-21T02:24:41.226Z,3.70
2022-09-21T02:27:19.733Z,3.65
2022-09-21T02:29:53.711Z,3.83
2022-09-21T02:32:38.147Z,3.60
2022-09-21T02:35:12.684Z,4.88
2022-09-21T02:37:47.353Z,3.85
2022-09-21T02:40:24.795Z,3.97
2022-09-21T02:42:58.124Z,3.90
2022-09-21T02:45:29.944Z,3.65
2022-09-21T02:48:02.389Z,4.57
2022-09-21T02:50:35.203Z,4.40
2022-09-21T02:53:05.657Z,4.22
2022-09-21T02:55:34.901Z,5.60
2022-09-21T02:58:06.911Z,4.40
2022-09-21T03:00:36.147Z,4.40
2022-09-21T03:03:17.276Z,4.53
2022-09-21T03:05:47.790Z,3.83
2022-09-21T03:08:15.818Z,3.75
2022-09-21T03:10:43.842Z,3.75
2022-09-21T03:13:12.348Z,3.95
2022-09-21T03:15:41.789Z,3.67
2022-09-21T03:18:11.384Z,4.00
2022-09-21T03:20:40.760Z,3.70
2022-09-21T03:23:08.987Z,4.47
2022-09-21T03:25:36.976Z,4.78
2022-09-21T03:28:05.179Z,4.60
2022-09-21T03:30:33.206Z,3.80
2022-09-21T03:33:01.192Z,4.00
2022-09-21T03:35:30.536Z,3.83
2022-09-21T03:37:59.543Z,4.20
2022-09-21T03:40:28.027Z,4.25
2022-09-21T03:42:56.457Z,3.65
2022-09-21T03:45:24.811Z,3.70
2022-09-21T03:47:56.719Z,3.90
2022-09-21T03:50:25.215Z,4.22
2022-09-21T03:52:54.742Z,4.63
2022-09-21T03:55:23.144Z,4.18
2022-09-21T03:57:51.239Z,3.88
2022-09-21T04:00:19.799Z,3.58
2022-09-21T04:02:47.853Z,3.72
2022-09-21T04:05:17.248Z,3.10
2022-09-21T04:07:46.762Z,3.70
2022-09-21T04:10:18.011Z,3.97
2022-09-21T04:12:47.319Z,4.63
2022-09-21T04:15:19.055Z,5.78
2022-09-21T04:17:47.847Z,5.30
2022-09-21T04:20:15.820Z,4.72
2022-09-21T04:22:44.810Z,5.03
2022-09-21T04:25:13.181Z,5.03
2022-09-21T04:27:43.102Z,6.00
2022-09-21T04:30:13.281Z,5.97
2022-09-21T04:32:41.791Z,5.85
2022-09-21T04:35:10.720Z,5.95
2022-09-21T04:37:38.709Z,5.45
2022-09-21T04:40:08.110Z,5.20
2022-09-21T04:42:36.593Z,5.03
2022-09-21T04:45:06.845Z,5.80
2022-09-21T04:47:34.834Z,5.28
2022-09-21T04:50:02.818Z,5.45
2022-09-21T04:52:30.792Z,5.82
2022-09-21T04:54:59.084Z,5.50
2022-09-21T04:57:27.051Z,5.07
2022-09-21T04:59:55.318Z,5.28
2022-09-21T05:02:24.756Z,5.53
2022-09-21T05:04:52.744Z,6.75
2022-09-21T05:07:20.718Z,5.80
2022-09-21T05:10:02.922Z,5.82
2022-09-21T05:12:31.199Z,5.50
2022-09-21T05:14:59.467Z,5.78
2022-09-21T05:17:28.888Z,6.15
2022-09-21T05:19:57.052Z,5.65
2022-09-21T05:22:25.096Z,5.57
2022-09-21T05:24:53.073Z,5.72
2022-09-21T05:27:21.083Z,5.35
2022-09-21T05:29:49.577Z,5.85
2022-09-21T05:32:24.747Z,6.30
2022-09-21T05:35:08.598Z,6.32
2022-09-21T05:37:52.575Z,5.55
2022-09-21T05:40:21.566Z,8.13
2022-09-21T05:42:50.244Z,5.40
2022-09-21T05:45:21.120Z,4.95
2022-09-21T05:48:01.508Z,6.00
2022-09-21T05:50:40.814Z,7.05
2022-09-21T05:53:29.751Z,5.80
2022-09-21T05:56:00.787Z,5.57
2022-09-21T05:58:38.106Z,6.25
2022-09-21T06:01:25.519Z,5.35
2022-09-21T06:03:54.627Z,5.38
2022-09-21T06:06:24.028Z,5.47
2022-09-21T06:08:52.110Z,5.20
2022-09-21T06:11:20.300Z,5.53
2022-09-21T06:13:48.330Z,6.05
2022-09-21T06:16:16.379Z,6.50
2022-09-21T06:18:44.401Z,5.75
2022-09-21T06:21:12.615Z,6.28
2022-09-21T06:23:41.952Z,5.57
2022-09-21T06:26:09.979Z,6.00
2022-09-21T06:28:37.956Z,5.32
2022-09-21T06:31:06.284Z,4.97
2022-09-21T06:33:35.766Z,6.05
2022-09-21T06:36:04.061Z,5.75
2022-09-21T06:38:32.114Z,5.10
2022-09-21T06:41:04.875Z,5.60
2022-09-21T06:43:33.617Z,4.97
2022-09-21T06:46:03.060Z,4.50
2022-09-21T06:48:33.417Z,4.60
2022-09-21T06:51:01.916Z,5.47
2022-09-21T06:53:30.885Z,4.80
2022-09-21T06:56:04.193Z,5.68
2022-09-21T06:58:34.237Z,5.32
2022-09-21T07:01:07.514Z,5.70
2022-09-21T07:03:36.291Z,5.30
2022-09-21T07:06:04.777Z,5.70
2022-09-21T07:11:23.670Z,5.90
2022-09-21T07:13:52.825Z,5.90
2022-09-21T07:16:21.588Z,6.20
2022-09-21T07:18:50.128Z,6.32
2022-09-21T07:21:18.197Z,6.68
2022-09-21T07:23:46.212Z,6.70
2022-09-21T07:26:15.166Z,7.15
2022-09-21T07:28:44.535Z,7.47
2022-09-21T07:31:15.495Z,7.57
2022-09-21T07:33:44.505Z,8.10
2022-09-21T07:36:13.228Z,7.90
2022-09-21T07:38:42.835Z,8.52
2022-09-21T07:41:12.799Z,8.73
2022-09-21T07:43:41.450Z,8.38
2022-09-21T07:46:13.031Z,8.52
2022-09-21T07:48:41.426Z,9.70
2022-09-21T07:51:11.252Z,8.45
2022-09-21T07:53:41.297Z,9.68
2022-09-21T07:56:11.710Z,9.80
2022-09-21T07:58:57.881Z,12.45
2022-09-21T08:01:28.540Z,13.63
2022-09-21T08:03:58.073Z,26.88
2022-09-21T08:06:27.584Z,22.42
2022-09-21T08:08:58.085Z,21.08
2022-09-21T08:11:27.566Z,14.30
2022-09-21T08:13:57.566Z,15.90
2022-09-21T08:16:26.852Z,18.13
2022-09-21T08:18:56.562Z,14.45
2022-09-21T08:21:24.679Z,16.08
2022-09-21T08:23:52.832Z,13.77
2022-09-21T08:26:22.709Z,13.60
2022-09-21T08:28:53.405Z,13.90
2022-09-21T08:31:24.307Z,16.08
2022-09-21T08:33:54.772Z,17.30
2022-09-21T08:36:24.320Z,17.02
2022-09-21T08:38:52.466Z,14.60
2022-09-21T08:41:22.316Z,16.27
2022-09-21T08:43:54.571Z,16.67
2022-09-21T08:46:24.694Z,16.00
2022-09-21T08:48:57.424Z,14.43
2022-09-21T08:51:31.604Z,12.65
2022-09-21T08:54:02.756Z,14.45
2022-09-21T08:56:53.304Z,11.00
2022-09-21T08:59:19.789Z,10.25
2022-09-21T09:01:59.623Z,8.80
2022-09-21T09:04:51.216Z,9.82
2022-09-21T09:07:34.725Z,9.93
2022-09-21T09:10:20.832Z,9.30
2022-09-21T09:12:59.758Z,6.57
2022-09-21T09:15:44.224Z,8.52
2022-09-21T09:18:18.749Z,6.90
2022-09-21T09:20:49.143Z,4.28
2022-09-21T09:23:23.847Z,6.18
2022-09-21T09:25:55.181Z,6.60
2022-09-21T09:28:30.189Z,5.63
2022-09-21T09:31:01.862Z,5.20
2022-09-21T09:33:38.141Z,6.00
2022-09-21T09:36:07.831Z,5.22
2022-09-21T09:38:40.767Z,6.00
2022-09-21T09:41:26.557Z,5.25
2022-09-21T09:44:07.970Z,4.00
2022-09-21T09:46:45.259Z,3.90
2022-09-21T09:49:26.361Z,2.97
2022-09-21T09:51:55.747Z,3.25
2022-09-21T09:54:28.139Z,3.03
2022-09-21T09:56:56.180Z,2.72
2022-09-21T09:59:30.594Z,4.60
2022-09-21T10:02:04.006Z,3.38
2022-09-21T10:04:34.735Z,3.25
2022-09-21T10:07:02.906Z,3.25
2022-09-21T10:09:34.142Z,3.30
2022-09-21T10:12:10.147Z,2.60
2022-09-21T10:14:38.614Z,2.00
2022-09-21T10:17:09.144Z,2.38
2022-09-21T10:19:38.220Z,2.72
2022-09-21T10:22:06.865Z,2.00
2022-09-21T10:24:40.701Z,1.73
2022-09-21T10:27:14.282Z,1.83
2022-09-21T10:29:44.790Z,2.20
2022-09-21T10:32:25.331Z,2.47
2022-09-21T10:35:18.124Z,2.83
2022-09-21T10:37:48.500Z,1.70
2022-09-21T10:40:30.781Z,2.03
2022-09-21T10:43:01.328Z,1.70
2022-09-21T10:45:31.295Z,2.15
2022-09-21T10:48:08.071Z,1.83
2022-09-21T10:50:38.025Z,1.58
2022-09-21T10:53:15.366Z,2.22
2022-09-21T10:55:58.440Z,1.98
2022-09-21T10:58:37.206Z,1.75
2022-09-21T11:01:13.988Z,1.60
2022-09-21T11:03:52.385Z,1.50
2022-09-21T11:06:26.141Z,1.23
2022-09-21T11:08:59.603Z,1.52
2022-09-21T11:11:40.737Z,1.50
2022-09-21T11:14:17.998Z,1.40
2022-09-21T11:16:51.918Z,1.30
2022-09-21T11:19:29.387Z,1.20
2022-09-21T11:22:02.840Z,1.13
2022-09-21T11:24:39.979Z,1.50
2022-09-21T11:27:13.723Z,0.98
2022-09-21T11:29:51.429Z,1.20
2022-09-21T11:32:37.182Z,1.52
2022-09-21T11:35:27.040Z,1.38
2022-09-21T11:38:06.690Z,1.50
2022-09-21T11:40:55.847Z,1.20
2022-09-21T11:43:41.724Z,1.10
2022-09-21T11:49:00.995Z,1.45
2022-09-21T11:51:40.999Z,1.15
2022-09-21T11:54:34.940Z,0.98
2022-09-21T11:57:11.241Z,1.05
2022-09-21T11:59:59.282Z,1.20
2022-09-21T12:02:45.496Z,1.30
2022-09-21T12:05:21.405Z,1.30
2022-09-21T12:08:03.080Z,1.17
2022-09-21T12:10:41.308Z,1.17
2022-09-21T12:13:20.535Z,1.27
2022-09-21T12:15:56.429Z,0.90
2022-09-21T12:18:32.582Z,1.27
2022-09-21T12:21:09.390Z,1.17
2022-09-21T12:23:43.009Z,1.05
2022-09-21T12:26:15.463Z,1.20
2022-09-21T12:28:47.693Z,1.27
2022-09-21T12:31:21.116Z,1.20
2022-09-21T12:33:52.976Z,1.10
2022-09-21T12:36:26.599Z,1.20
2022-09-21T12:39:00.378Z,1.20
2022-09-21T12:41:35.573Z,1.20
2022-09-21T12:44:13.577Z,1.05
2022-09-21T12:46:51.650Z,1.42
2022-09-21T12:49:25.248Z,1.10
2022-09-21T12:51:56.584Z,1.48
2022-09-21T12:54:37.899Z,1.20
2022-09-21T12:57:38.322Z,1.20
2022-09-21T13:00:07.046Z,1.08
2022-09-21T13:05:24.630Z,0.90
2022-09-21T13:08:04.917Z,1.20
2022-09-21T13:10:40.939Z,1.10
2022-09-21T13:13:18.648Z,1.10
2022-09-21T13:15:49.640Z,1.00
2022-09-21T13:18:23.392Z,1.38
2022-09-21T13:20:54.393Z,1.08
2022-09-21T13:23:29.273Z,1.23
2022-09-21T13:26:04.267Z,1.05
2022-09-21T13:29:07.196Z,1.20
2022-09-21T13:31:58.592Z,0.95
2022-09-21T13:34:30.481Z,1.20
2022-09-21T13:37:28.839Z,1.20
2022-09-21T13:40:34.964Z,1.27
2022-09-21T13:43:25.261Z,0.70
2022-09-21T13:45:55.499Z,1.00
2022-09-21T13:48:29.593Z,1.10
2022-09-21T13:51:02.805Z,1.00
2022-09-21T13:53:35.736Z,1.33
2022-09-21T13:56:18.009Z,1.00
2022-09-21T13:58:48.336Z,0.68
2022-09-21T14:01:45.777Z,0.80
2022-09-21T14:04:24.170Z,1.10
2022-09-21T14:06:54.870Z,0.65
2022-09-21T14:09:27.623Z,0.98
2022-09-21T14:11:58.974Z,1.02
2022-09-21T14:14:31.421Z,0.90
2022-09-21T14:17:00.693Z,1.20
2022-09-21T14:20:08.069Z,0.85
2022-09-21T14:22:46.748Z,1.08
2022-09-21T14:25:29.587Z,1.10
2022-09-21T14:28:12.067Z,1.10
2022-09-21T14:30:42.109Z,1.20
2022-09-21T14:33:26.551Z,1.25
2022-09-21T14:35:57.464Z,1.00
2022-09-21T14:38:32.759Z,1.08
2022-09-21T14:41:07.289Z,1.15
2022-09-21T14:43:37.057Z,1.27
2022-09-21T14:46:32.748Z,0.93
2022-09-21T14:49:15.551Z,1.20
2022-09-21T14:54:49.240Z,1.20
2022-09-21T14:57:37.227Z,1.65
2022-09-21T15:00:24.611Z,1.00
2022-09-21T15:03:10.293Z,1.08
2022-09-21T15:05:41.472Z,1.00
2022-09-21T15:08:42.116Z,1.27
2022-09-21T15:11:21.753Z,1.05
2022-09-21T15:14:16.724Z,1.17
2022-09-21T15:16:47.294Z,1.33
2022-09-21T15:19:23.760Z,0.98
2022-09-21T15:21:53.765Z,1.17
2022-09-21T15:24:26.484Z,1.08
2022-09-21T15:27:03.885Z,1.13
2022-09-21T15:29:33.936Z,1.40
2022-09-21T15:32:02.670Z,1.63
2022-09-21T15:34:32.115Z,1.00
2022-09-21T15:37:16.991Z,1.10
2022-09-21T15:39:45.093Z,1.10
2022-09-21T15:42:22.729Z,1.10
2022-09-21T15:44:54.501Z,1.50
2022-09-21T15:47:25.855Z,1.27
2022-09-21T15:49:56.181Z,1.42
2022-09-21T15:52:33.031Z,0.75
2022-09-21T15:55:04.148Z,1.10
2022-09-21T15:57:39.207Z,1.48
2022-09-21T16:00:19.252Z,1.30
2022-09-21T16:03:05.375Z,1.40
2022-09-21T16:05:43.110Z,1.60
2022-09-21T16:08:28.401Z,1.00
2022-09-21T16:11:14.532Z,1.42
2022-09-21T16:14:02.323Z,1.20
2022-09-21T16:16:30.455Z,1.58
2022-09-21T16:19:00.654Z,1.17
2022-09-21T16:21:32.657Z,1.20
2022-09-21T16:24:12.517Z,1.58
2022-09-21T16:26:41.615Z,2.13
2022-09-21T16:29:23.660Z,2.58
2022-09-21T16:31:51.767Z,2.00
2022-09-21T16:34:26.144Z,1.80
2022-09-21T16:36:57.947Z,2.00
2022-09-21T16:39:27.383Z,1.83
2022-09-21T16:42:02.635Z,1.67
2022-09-21T16:44:40.120Z,1.50
2022-09-21T16:47:14.299Z,1.50
2022-09-21T16:49:42.692Z,1.73
2022-09-21T16:52:10.971Z,1.48
2022-09-21T16:54:39.141Z,1.30
2022-09-21T16:57:08.028Z,1.38
2022-09-21T16:59:37.403Z,1.88
2022-09-21T17:02:06.043Z,1.80
2022-09-21T17:04:35.864Z,1.70
2022-09-21T17:07:06.148Z,1.70
2022-09-21T17:09:35.964Z,1.65
2022-09-21T17:12:06.891Z,1.80
2022-09-21T17:14:41.901Z,1.38
2022-09-21T17:17:17.592Z,1.60
2022-09-21T17:19:47.115Z,1.95
2022-09-21T17:22:17.257Z,1.75
2022-09-21T17:24:51.263Z,1.60
2022-09-21T17:27:21.671Z,1.90
2022-09-21T17:29:53.859Z,1.77
2022-09-21T17:32:23.620Z,2.10
2022-09-21T17:34:58.846Z,1.80
2022-09-21T17:37:27.319Z,1.80
2022-09-21T17:39:55.453Z,2.28
2022-09-21T17:42:25.945Z,1.77
2022-09-21T17:45:12.787Z,1.67
2022-09-21T17:47:41.555Z,2.05
2022-09-21T17:50:19.543Z,1.90
2022-09-21T17:53:02.253Z,2.00
2022-09-21T17:55:31.442Z,2.08
2022-09-21T17:58:07.353Z,2.10
2022-09-21T18:00:44.085Z,1.90
2022-09-21T18:03:20.420Z,2.25
2022-09-21T18:05:48.977Z,2.00
2022-09-21T18:08:17.827Z,2.03
2022-09-21T18:11:07.508Z,2.60
2022-09-21T18:13:46.261Z,2.30
2022-09-21T18:16:33.691Z,2.30
2022-09-21T18:19:23.410Z,2.38
2022-09-21T18:21:58.174Z,2.45
2022-09-21T18:24:31.162Z,2.50
2022-09-21T18:27:00.784Z,1.98
2022-09-21T18:29:40.890Z,1.98
2022-09-21T18:32:36.277Z,2.03
2022-09-21T18:35:28.268Z,1.98
2022-09-21T18:38:08.760Z,2.17
2022-09-21T18:40:46.870Z,2.97
2022-09-21T18:43:27.552Z,2.50
2022-09-21T18:46:02.626Z,2.70
2022-09-21T18:48:50.813Z,2.90
2022-09-21T18:51:30.094Z,2.85
2022-09-21T18:54:00.199Z,2.80
2022-09-21T18:56:33.996Z,2.90
2022-09-21T18:59:02.935Z,2.72
2022-09-21T19:01:33.896Z,2.80
2022-09-21T19:04:04.333Z,2.88
2022-09-21T19:06:41.234Z,2.50
2022-09-21T19:09:30.175Z,2.78
2022-09-21T19:12:06.218Z,2.60
2022-09-21T19:14:42.637Z,4.00
2022-09-21T19:17:26.724Z,4.10
2022-09-21T19:20:10.819Z,4.07
2022-09-21T19:22:49.357Z,4.72
2022-09-21T19:25:24.857Z,3.85
2022-09-21T19:30:24.028Z,3.88
2022-09-21T19:32:54.069Z,3.83
2022-09-21T19:35:26.140Z,4.85
2022-09-21T19:37:56.315Z,7.22
2022-09-21T19:40:26.814Z,7.60
2022-09-21T19:43:20.684Z,7.68
2022-09-21T19:46:04.540Z,6.75
2022-09-21T19:48:42.532Z,6.68
2022-09-21T19:51:19.355Z,6.07
2022-09-21T19:54:10.930Z,7.00
2022-09-21T19:57:03.562Z,6.65
2022-09-21T19:59:44.018Z,7.28
2022-09-21T20:02:15.257Z,7.10
2022-09-21T20:04:50.746Z,6.00
2022-09-21T20:10:10.568Z,5.78
2022-09-21T20:12:48.702Z,7.53
2022-09-21T20:15:28.638Z,6.78
2022-09-21T20:18:02.964Z,8.13
2022-09-21T20:20:31.577Z,6.68
2022-09-21T20:23:01.525Z,6.40
2022-09-21T20:25:35.560Z,6.28
2022-09-21T20:28:04.705Z,6.18
2022-09-21T20:30:35.827Z,5.50
2022-09-21T20:33:06.866Z,5.93
2022-09-21T20:35:35.716Z,6.10
2022-09-21T20:38:05.164Z,6.13
2022-09-21T20:40:33.460Z,6.47
2022-09-21T20:43:01.965Z,5.45
2022-09-21T20:45:32.275Z,5.70
2022-09-21T20:48:13.033Z,5.85
2022-09-21T20:50:42.345Z,5.65
2022-09-21T20:53:12.544Z,6.80
2022-09-21T20:55:41.103Z,5.97
2022-09-21T20:58:11.918Z,5.97
2022-09-21T21:00:39.938Z,5.63
2022-09-21T21:03:08.026Z,5.10
2022-09-21T21:05:36.076Z,6.05
2022-09-21T21:08:04.695Z,5.22
2022-09-21T21:10:34.375Z,5.40
2022-09-21T21:13:02.824Z,5.00
2022-09-21T21:15:31.370Z,5.95
2022-09-21T21:17:59.365Z,5.70
2022-09-21T21:20:29.039Z,5.60
2022-09-21T21:22:57.066Z,5.60
2022-09-21T21:25:25.059Z,5.50
2022-09-21T21:27:57.449Z,5.95
2022-09-21T21:30:25.523Z,5.20
2022-09-21T21:32:53.617Z,4.63
2022-09-21T21:35:21.667Z,4.80
2022-09-21T21:37:49.717Z,5.05
2022-09-21T21:40:17.947Z,5.75
2022-09-21T21:42:46.205Z,5.50
2022-09-21T21:45:15.652Z,7.63
2022-09-21T21:47:43.704Z,6.45
2022-09-21T21:50:12.277Z,7.30
2022-09-21T21:52:40.627Z,8.07
2022-09-21T21:55:10.142Z,8.77
2022-09-21T21:57:38.142Z,8.50
2022-09-21T22:00:08.726Z,9.07
2022-09-21T22:02:38.154Z,8.45
2022-09-21T22:05:06.891Z,9.40
2022-09-21T22:07:34.939Z,11.15
2022-09-21T22:10:03.071Z,10.45
2022-09-21T22:12:31.731Z,10.07
2022-09-21T22:14:59.701Z,10.23
2022-09-21T22:17:27.704Z,10.02
2022-09-21T22:19:57.047Z,10.20
2022-09-21T22:22:25.272Z,9.57
2022-09-21T22:24:53.289Z,9.65
2022-09-21T22:27:21.386Z,9.25
2022-09-21T22:29:49.452Z,9.70
2022-09-21T22:32:17.484Z,8.73
2022-09-21T22:34:45.456Z,8.25
2022-09-21T22:37:14.845Z,8.00
2022-09-21T22:39:42.911Z,8.27
2022-09-21T22:42:12.129Z,7.80
2022-09-21T22:44:40.194Z,7.78
2022-09-21T22:47:08.243Z,6.82
2022-09-21T22:49:36.690Z,6.65
2022-09-21T22:52:04.897Z,7.00
2022-09-21T22:54:34.266Z,6.95
2022-09-21T22:57:02.256Z,6.53
2022-09-21T22:59:30.300Z,6.78
2022-09-21T23:01:58.272Z,6.68
2022-09-21T23:04:26.447Z,6.03
2022-09-21T23:06:54.734Z,6.00
2022-09-21T23:09:23.080Z,6.13
2022-09-21T23:11:53.814Z,6.38
2022-09-21T23:14:22.946Z,6.25
2022-09-21T23:16:50.969Z,5.50
2022-09-21T23:19:19.003Z,5.25
2022-09-21T23:21:49.451Z,4.30
2022-09-21T23:24:18.220Z,4.20
2022-09-21T23:26:46.746Z,4.93
2022-09-21T23:29:16.757Z,5.00
2022-09-21T23:31:46.245Z,4.95
2022-09-21T23:34:15.395Z,5.07
2022-09-21T23:36:44.559Z,5.28
2022-09-21T23:39:13.709Z,5.40
2022-09-21T23:41:42.057Z,5.40
2022-09-21T23:44:10.103Z,5.10
2022-09-21T23:46:41.086Z,5.72
2022-09-21T23:49:09.537Z,5.30
2022-09-21T23:51:37.902Z,5.43
2022-09-21T23:54:06.144Z,5.22
2022-09-21T23:56:34.446Z,4.97
2022-09-21T23:59:02.512Z,5.50
